Time;durP1;ratioP1;P1;durP2;ratioP2;P2;SDS_P1;SDS_P2;PMS_P1;PMS_P2;Temp;Humidity;BMP_temperature;BMP_pressure;BME280_temperature;BME280_humidity;BME280_pressure;Samples;Min_cycle;Max_cycle;Signal;HPM_P1;HPM_P2
2021/09/28 00:02:25;;;;;;;2.80;1.40;;;19.50;75.60;;;;;;10499090;28;20029;-54
2021/09/28 00:07:26;;;;;;;3.67;1.38;;;19.50;75.40;;;;;;10499042;28;20428;-57
2021/09/28 00:12:27;;;;;;;4.43;1.63;;;19.50;75.30;;;;;;10499235;28;20028;-57
2021/09/28 00:17:27;;;;;;;4.03;2.03;;;19.40;75.10;;;;;;10498520;28;20485;-57
2021/09/28 00:22:28;;;;;;;2.42;1.60;;;19.40;74.90;;;;;;10501512;28;20259;-57
2021/09/28 00:27:29;;;;;;;4.30;1.88;;;19.40;75.00;;;;;;10474441;28;20116;-57
2021/09/28 00:32:30;;;;;;;3.88;1.42;;;19.40;75.00;;;;;;10496957;28;20455;-57
2021/09/28 00:37:31;;;;;;;3.97;1.45;;;19.40;75.10;;;;;;10498047;28;20086;-57
2021/09/28 00:42:31;;;;;;;5.05;1.63;;;19.40;75.00;;;;;;10497909;28;20040;-57
2021/09/28 00:47:32;;;;;;;3.35;1.40;;;19.40;75.20;;;;;;10497812;28;20036;-57
2021/09/28 00:52:34;;;;;;;2.72;1.50;;;19.40;75.30;;;;;;10497601;28;20473;-56
2021/09/28 00:57:37;;;;;;;1.52;0.93;;;19.40;75.20;;;;;;10489307;28;20029;-57
2021/09/28 01:02:39;;;;;;;2.83;1.60;;;19.40;75.00;;;;;;10496060;28;20135;-57
2021/09/28 01:07:40;;;;;;;4.90;1.73;;;19.40;75.00;;;;;;10496991;28;20028;-57
2021/09/28 01:12:40;;;;;;;2.53;1.40;;;19.40;74.90;;;;;;10497170;28;20028;-57
2021/09/28 01:17:42;;;;;;;2.65;1.45;;;19.40;74.90;;;;;;10479350;28;20031;-57
2021/09/28 01:22:42;;;;;;;3.10;2.17;;;19.40;74.90;;;;;;10499248;28;20396;-57
2021/09/28 01:27:43;;;;;;;3.40;1.60;;;19.30;74.70;;;;;;10496314;28;20020;-57
2021/09/28 01:32:44;;;;;;;2.88;1.92;;;19.30;74.70;;;;;;10495745;28;20048;-57
2021/09/28 01:37:45;;;;;;;2.53;1.60;;;19.30;74.60;;;;;;10496991;28;20112;-57
2021/09/28 01:42:46;;;;;;;2.55;1.50;;;19.30;74.50;;;;;;10505166;28;20033;-57
2021/09/28 01:47:46;;;;;;;3.22;1.45;;;19.30;74.60;;;;;;10500239;28;20107;-57
2021/09/28 01:52:47;;;;;;;3.20;1.67;;;19.30;74.50;;;;;;10504989;28;20116;-57
2021/09/28 01:57:48;;;;;;;3.35;1.58;;;19.30;74.50;;;;;;10504263;28;20052;-57
2021/09/28 02:02:49;;;;;;;3.00;1.80;;;19.30;74.50;;;;;;10504366;28;20046;-57
2021/09/28 02:07:49;;;;;;;3.33;1.35;;;19.30;74.40;;;;;;10504029;28;20104;-57
2021/09/28 02:12:50;;;;;;;4.75;1.50;;;19.30;74.40;;;;;;10503965;28;20070;-57
2021/09/28 02:17:51;;;;;;;3.80;1.77;;;19.20;74.40;;;;;;10503808;28;20123;-57
2021/09/28 02:22:52;;;;;;;4.53;1.58;;;19.30;74.40;;;;;;10488382;28;20041;-57
2021/09/28 02:27:53;;;;;;;3.33;1.75;;;19.20;74.50;;;;;;10501889;28;20043;-56
2021/09/28 02:32:53;;;;;;;5.07;1.63;;;19.20;74.30;;;;;;10502162;28;20111;-56
2021/09/28 02:37:56;;;;;;;3.83;1.70;;;19.20;74.30;;;;;;10502920;28;20020;-56
2021/09/28 02:42:57;;;;;;;3.30;1.48;;;19.20;74.30;;;;;;10502817;28;20028;-57
2021/09/28 02:47:57;;;;;;;1.40;1.15;;;19.20;74.20;;;;;;10502649;28;20489;-57
2021/09/28 02:52:58;;;;;;;3.30;1.45;;;19.20;74.20;;;;;;10500346;28;20094;-57
2021/09/28 02:57:59;;;;;;;5.63;1.70;;;19.20;74.20;;;;;;10502059;28;20568;-57
2021/09/28 03:02:59;;;;;;;4.68;1.55;;;19.20;74.30;;;;;;10500820;28;20107;-57
2021/09/28 03:08:00;;;;;;;3.25;2.13;;;19.20;74.40;;;;;;10502096;28;20040;-57
2021/09/28 03:13:01;;;;;;;4.40;1.55;;;19.20;74.20;;;;;;10501631;28;20116;-57
2021/09/28 03:18:02;;;;;;;2.50;1.38;;;19.20;74.20;;;;;;10501399;28;20112;-57
2021/09/28 03:23:03;;;;;;;2.95;1.55;;;19.20;74.20;;;;;;10504147;28;20035;-57
2021/09/28 03:28:04;;;;;;;3.08;1.50;;;19.10;74.10;;;;;;10500722;28;20033;-57
2021/09/28 03:33:05;;;;;;;2.92;1.55;;;19.10;74.10;;;;;;10500994;28;20526;-57
2021/09/28 03:38:06;;;;;;;6.25;1.65;;;19.10;74.00;;;;;;10500476;28;20098;-57
2021/09/28 03:43:06;;;;;;;3.55;1.48;;;19.10;73.90;;;;;;10499326;28;20071;-57
2021/09/28 03:48:07;;;;;;;3.42;1.60;;;19.10;73.90;;;;;;10500348;28;20027;-57
2021/09/28 03:53:08;;;;;;;3.80;1.38;;;19.10;73.80;;;;;;10500059;28;20123;-57
2021/09/28 03:58:11;;;;;;;2.67;1.33;;;19.10;73.80;;;;;;10494606;28;20476;-57
2021/09/28 04:03:12;;;;;;;3.75;1.40;;;19.10;73.90;;;;;;10498815;28;20372;-57
2021/09/28 04:08:13;;;;;;;5.50;1.67;;;19.10;73.90;;;;;;10497815;28;20115;-57
2021/09/28 04:13:13;;;;;;;4.90;2.08;;;19.10;73.90;;;;;;10499233;28;20482;-57
2021/09/28 04:18:14;;;;;;;3.40;1.25;;;19.10;73.80;;;;;;10498721;28;20056;-57
2021/09/28 04:23:15;;;;;;;4.43;1.20;;;19.10;73.70;;;;;;10500377;28;20032;-56
2021/09/28 04:28:16;;;;;;;2.80;1.10;;;19.00;73.70;;;;;;10498059;28;20504;-56
2021/09/28 04:33:17;;;;;;;3.45;1.55;;;19.00;73.70;;;;;;10497827;28;20028;-57
2021/09/28 04:38:18;;;;;;;2.95;1.52;;;19.00;73.70;;;;;;10490887;28;20059;-57
2021/09/28 04:43:18;;;;;;;1.88;1.02;;;19.00;73.70;;;;;;10497948;28;20033;-56
2021/09/28 04:48:19;;;;;;;2.35;1.60;;;19.00;73.70;;;;;;10497595;28;20384;-57
2021/09/28 04:53:21;;;;;;;3.20;1.48;;;19.00;73.90;;;;;;10496384;28;20496;-58
2021/09/28 04:58:24;;;;;;;4.05;1.45;;;19.00;74.00;;;;;;10489619;28;20097;-57
2021/09/28 05:03:25;;;;;;;5.97;1.55;;;19.10;74.10;;;;;;10495822;28;20463;-57
2021/09/28 05:08:25;;;;;;;12.32;1.83;;;19.20;74.00;;;;;;10496227;28;20059;-57
2021/09/28 05:13:26;;;;;;;4.40;1.58;;;19.20;74.40;;;;;;10495820;28;20106;-57
2021/09/28 05:18:27;;;;;;;4.15;1.08;;;19.30;74.20;;;;;;10497200;28;20491;-57
2021/09/28 05:23:28;;;;;;;7.07;1.80;;;19.40;74.20;;;;;;10496110;28;20024;-58
2021/09/28 05:28:29;;;;;;;11.77;2.20;;;19.40;74.20;;;;;;10492917;28;20121;-57
2021/09/28 05:33:30;;;;;;;8.23;1.67;;;19.50;74.10;;;;;;10477399;28;20064;-57
2021/09/28 05:38:30;;;;;;;5.93;1.70;;;19.40;74.20;;;;;;10496519;28;20099;-57
2021/09/28 05:43:31;;;;;;;11.45;2.22;;;19.40;74.20;;;;;;10489043;28;20052;-59
2021/09/28 05:48:32;;;;;;;14.27;3.17;;;19.40;74.00;;;;;;10496278;28;20108;-54
2021/09/28 05:53:36;;;;;;;15.35;2.78;;;19.30;73.50;;;;;;10495937;28;20115;-56
2021/09/28 05:58:37;;;;;;;6.95;1.90;;;19.20;73.80;;;;;;10492905;28;20158;-56
2021/09/28 06:03:38;;;;;;;13.80;2.13;;;19.20;74.10;;;;;;10495658;28;20263;-56
2021/09/28 06:08:39;;;;;;;8.40;2.10;;;19.00;73.80;;;;;;10495083;28;20029;-56
2021/09/28 06:13:39;;;;;;;11.57;2.53;;;19.00;73.80;;;;;;10464680;28;20032;-57
2021/09/28 06:18:40;;;;;;;9.77;2.25;;;19.00;74.10;;;;;;10497670;28;20031;-57
2021/09/28 06:23:41;;;;;;;10.93;2.22;;;19.10;74.10;;;;;;10498815;28;20450;-57
2021/09/28 06:28:41;;;;;;;8.18;2.38;;;19.00;73.80;;;;;;10515687;28;20380;-58
2021/09/28 06:33:42;;;;;;;7.50;2.17;;;19.00;73.70;;;;;;10482037;28;20115;-57
2021/09/28 06:38:43;;;;;;;12.40;2.17;;;19.00;73.90;;;;;;10492769;28;20041;-56
2021/09/28 06:43:44;;;;;;;7.88;2.00;;;19.00;73.80;;;;;;10496716;28;20107;-56
2021/09/28 06:48:44;;;;;;;6.75;2.67;;;19.00;74.00;;;;;;10498629;28;20111;-56
2021/09/28 06:53:46;;;;;;;6.78;1.85;;;19.00;73.90;;;;;;10482803;28;20432;-56
2021/09/28 06:58:48;;;;;;;5.68;1.88;;;19.00;73.90;;;;;;10501475;28;20068;-55
2021/09/28 07:03:49;;;;;;;6.85;1.70;;;19.00;73.80;;;;;;10501468;28;20039;-56
2021/09/28 07:08:50;;;;;;;7.00;2.10;;;19.00;73.60;;;;;;10500160;28;20104;-55
2021/09/28 07:13:51;;;;;;;4.35;1.75;;;19.00;74.00;;;;;;10500832;28;20049;-55
2021/09/28 07:18:52;;;;;;;4.50;1.50;;;19.00;73.70;;;;;;10500239;28;20095;-57
2021/09/28 07:23:52;;;;;;;6.88;2.45;;;19.10;74.10;;;;;;10500826;28;20071;-57
2021/09/28 07:28:53;;;;;;;6.25;2.10;;;19.10;74.00;;;;;;10500422;28;20067;-57
2021/09/28 07:33:54;;;;;;;3.40;1.33;;;19.10;74.00;;;;;;10493039;28;20520;-57
2021/09/28 07:38:54;;;;;;;8.10;2.15;;;19.10;73.80;;;;;;10498194;28;20024;-58
2021/09/28 07:43:55;;;;;;;3.85;1.95;;;19.10;74.00;;;;;;10496054;28;20021;-57
2021/09/28 07:48:56;;;;;;;8.35;1.60;;;19.10;73.90;;;;;;10496493;28;20051;-57
2021/09/28 07:53:57;;;;;;;4.63;1.40;;;19.20;73.90;;;;;;10495715;28;20489;-57
2021/09/28 07:58:59;;;;;;;6.70;2.05;;;19.20;73.80;;;;;;10497596;28;20127;-57
2021/09/28 08:04:00;;;;;;;6.70;1.70;;;19.20;73.70;;;;;;10498566;28;20037;-57
2021/09/28 08:09:00;;;;;;;6.47;1.50;;;19.20;73.60;;;;;;10499073;28;20032;-57
2021/09/28 08:14:02;;;;;;;6.10;1.70;;;19.20;73.50;;;;;;10498340;28;20115;-57
2021/09/28 08:19:04;;;;;;;5.85;1.30;;;19.30;73.40;;;;;;10498053;28;20044;-57
2021/09/28 08:24:06;;;;;;;4.50;1.50;;;19.30;73.20;;;;;;10497232;28;20028;-57
2021/09/28 08:29:10;;;;;;;3.92;1.50;;;19.30;73.10;;;;;;10497768;28;20072;-57
2021/09/28 08:34:12;;;;;;;3.72;1.58;;;19.40;73.10;;;;;;10497639;28;20041;-57
2021/09/28 08:39:15;;;;;;;5.82;1.80;;;19.40;72.50;;;;;;10496418;28;20395;-57
2021/09/28 08:44:17;;;;;;;6.55;1.85;;;19.40;72.40;;;;;;10496556;28;20028;-57
2021/09/28 08:49:21;;;;;;;4.60;1.90;;;19.40;72.20;;;;;;10494884;28;20090;-57
2021/09/28 08:54:21;;;;;;;7.78;1.77;;;19.40;72.30;;;;;;10496226;28;20485;-57
2021/09/28 08:59:23;;;;;;;6.50;1.30;;;19.50;72.30;;;;;;10496765;28;20021;-57
2021/09/28 09:04:25;;;;;;;7.35;2.50;;;19.50;72.30;;;;;;10477370;28;20037;-57
2021/09/28 09:09:26;;;;;;;3.30;1.67;;;19.50;72.20;;;;;;10496878;28;20353;-56
2021/09/28 09:14:27;;;;;;;7.25;1.80;;;19.60;72.30;;;;;;10495991;28;20086;-56
2021/09/28 09:19:29;;;;;;;4.93;1.95;;;19.60;72.10;;;;;;10505003;28;20056;-56
2021/09/28 09:24:52;;;;;;;4.50;1.77;;;19.70;72.10;;;;;;10498313;28;20029;-55
2021/09/28 09:30:11;;;;;;;4.70;2.05;;;19.70;72.20;;;;;;10496504;28;20055;-54
2021/09/28 09:35:24;;;;;;;5.53;1.98;;;19.70;72.10;;;;;;10496771;28;20045;-55
2021/09/28 09:40:41;;;;;;;5.13;2.03;;;19.70;71.90;;;;;;10494628;28;20028;-56
2021/09/28 09:45:42;;;;;;;3.30;1.20;;;19.80;72.20;;;;;;10496655;28;20080;-56
2021/09/28 09:50:43;;;;;;;6.65;1.77;;;19.80;72.00;;;;;;10495222;28;20056;-56
2021/09/28 09:55:45;;;;;;;2.72;1.40;;;19.90;71.90;;;;;;10494731;28;20075;-55
2021/09/28 10:00:49;;;;;;;3.05;1.63;;;19.90;71.50;;;;;;10499444;28;20040;-56
2021/09/28 10:05:49;;;;;;;5.32;2.08;;;19.90;71.70;;;;;;10503804;28;20032;-57
2021/09/28 10:10:58;;;;;;;4.70;1.33;;;19.90;71.80;;;;;;10503856;28;20020;-55
2021/09/28 10:16:32;;;;;;;4.20;1.60;;;20.00;71.70;;;;;;10502651;28;20167;-57
2021/09/28 10:21:43;;;;;;;5.10;1.75;;;20.00;71.50;;;;;;10511181;28;20295;-57
2021/09/28 10:27:07;;;;;;;4.53;1.70;;;20.10;71.70;;;;;;10502899;28;20461;-56
2021/09/28 10:32:32;;;;;;;5.30;1.92;;;20.10;71.50;;;;;;10496815;28;20067;-58
2021/09/28 10:37:41;;;;;;;4.18;1.60;;;20.10;71.50;;;;;;10503342;28;20029;-57
2021/09/28 10:43:05;;;;;;;4.78;1.83;;;20.20;71.50;;;;;;10501230;28;20032;-57
2021/09/28 10:48:23;;;;;;;4.78;1.23;;;20.20;71.60;;;;;;10502790;28;20040;-58
2021/09/28 10:53:23;;;;;;;3.45;1.52;;;20.20;71.60;;;;;;10497146;28;20120;-57
2021/09/28 10:58:26;;;;;;;4.80;1.52;;;20.20;71.50;;;;;;10499423;28;20118;-57
2021/09/28 11:03:55;;;;;;;3.33;1.48;;;20.20;71.30;;;;;;10495066;28;20028;-58
2021/09/28 11:08:56;;;;;;;2.90;1.30;;;20.20;71.10;;;;;;10499373;28;20025;-57
2021/09/28 11:14:02;;;;;;;5.15;1.65;;;20.30;71.20;;;;;;10499811;28;20429;-57
2021/09/28 11:19:02;;;;;;;4.80;1.50;;;20.30;71.20;;;;;;10506074;28;20063;-57
2021/09/28 11:24:03;;;;;;;5.88;1.60;;;20.30;71.00;;;;;;10504519;28;20039;-58
2021/09/28 11:29:06;;;;;;;5.68;1.63;;;20.30;70.90;;;;;;10500692;28;20040;-57
2021/09/28 11:34:07;;;;;;;3.47;1.67;;;20.40;70.90;;;;;;10499555;28;20115;-58
2021/09/28 11:39:15;;;;;;;5.05;1.40;;;20.40;70.60;;;;;;10479862;28;20041;-57
2021/09/28 11:44:16;;;;;;;4.55;1.65;;;20.40;70.90;;;;;;10498095;28;20029;-57
2021/09/28 11:49:17;;;;;;;5.80;1.80;;;20.50;70.80;;;;;;10499149;28;20488;-57
2021/09/28 11:54:18;;;;;;;5.47;2.08;;;20.40;70.70;;;;;;10499595;28;20396;-57
2021/09/28 11:59:20;;;;;;;4.90;1.67;;;20.40;71.00;;;;;;10498984;28;20044;-58
2021/09/28 12:09:34;;;;;;;2.72;1.60;;;20.40;70.90;;;;;;10496407;28;20063;-57
2021/09/28 12:14:35;;;;;;;8.45;2.20;;;20.50;70.60;;;;;;10492417;28;20032;-56
2021/09/28 12:19:38;;;;;;;6.63;2.03;;;20.50;70.50;;;;;;10504841;28;20063;-57
2021/09/28 12:24:53;;;;;;;7.22;2.20;;;20.40;70.50;;;;;;10495797;28;20120;-57
2021/09/28 12:29:57;;;;;;;9.88;2.83;;;20.40;70.70;;;;;;10494976;28;20098;-57
2021/09/28 12:35:09;;;;;;;5.03;2.10;;;20.40;71.00;;;;;;10498353;28;20036;-58
2021/09/28 12:40:12;;;;;;;10.30;2.70;;;20.30;71.00;;;;;;10497023;28;20039;-56
2021/09/28 12:45:16;;;;;;;7.97;2.75;;;20.40;70.60;;;;;;10492056;28;20041;-57
2021/09/28 12:50:20;;;;;;;6.95;2.72;;;20.40;70.90;;;;;;10495586;28;20107;-56
2021/09/28 12:55:20;;;;;;;11.25;2.80;;;20.40;70.80;;;;;;10496225;28;20106;-56
2021/09/28 13:00:23;;;;;;;10.55;2.92;;;20.40;70.90;;;;;;10483157;28;20100;-57
2021/09/28 13:05:25;;;;;;;19.75;2.90;;;20.40;70.90;;;;;;10486003;28;20545;-56
2021/09/28 13:10:27;;;;;;;5.03;2.00;;;20.40;70.80;;;;;;10471920;28;20024;-56
2021/09/28 13:15:27;;;;;;;8.15;2.83;;;20.40;70.90;;;;;;10494372;28;20052;-57
2021/09/28 13:20:28;;;;;;;6.95;3.00;;;20.40;70.50;;;;;;10506167;28;20067;-55
2021/09/28 13:25:29;;;;;;;9.57;2.58;;;20.40;70.60;;;;;;10496413;28;20086;-55
2021/09/28 13:30:30;;;;;;;9.70;2.92;;;20.40;70.50;;;;;;10496470;28;20047;-53
2021/09/28 13:35:32;;;;;;;6.82;3.10;;;20.30;70.90;;;;;;10504810;28;20036;-57
2021/09/28 13:40:33;;;;;;;8.45;2.85;;;20.30;70.70;;;;;;10510408;28;20431;-56
2021/09/28 13:45:37;;;;;;;11.13;3.00;;;20.30;70.40;;;;;;10509809;28;20089;-55
2021/09/28 13:50:39;;;;;;;4.60;2.40;;;20.30;70.10;;;;;;10510192;28;20040;-56
2021/09/28 13:55:39;;;;;;;5.55;2.28;;;20.20;70.20;;;;;;10509726;28;20095;-56
2021/09/28 14:00:40;;;;;;;9.02;2.70;;;20.20;70.10;;;;;;10509908;28;20137;-56
2021/09/28 14:05:41;;;;;;;7.72;2.40;;;20.20;69.90;;;;;;10508325;28;20090;-56
2021/09/28 14:10:41;;;;;;;5.88;2.30;;;20.20;69.90;;;;;;10496390;28;20063;-56
2021/09/28 14:15:42;;;;;;;4.88;2.28;;;20.10;70.10;;;;;;10509755;28;20162;-56
2021/09/28 14:20:43;;;;;;;6.63;2.30;;;20.10;70.10;;;;;;10517825;28;20123;-56
2021/09/28 14:25:43;;;;;;;5.70;2.47;;;20.10;70.10;;;;;;10509468;28;20122;-56
2021/09/28 14:30:44;;;;;;;10.18;2.20;;;20.10;70.20;;;;;;10509548;28;20127;-56
2021/09/28 14:35:45;;;;;;;8.80;2.65;;;20.10;69.70;;;;;;10509273;28;20028;-56
2021/09/28 14:40:46;;;;;;;5.50;2.22;;;20.10;69.90;;;;;;10506128;28;20032;-55
2021/09/28 14:45:46;;;;;;;6.82;2.33;;;20.00;70.10;;;;;;10503593;28;20434;-55
2021/09/28 14:50:49;;;;;;;24.00;4.68;;;20.10;69.80;;;;;;10499691;28;20032;-52
2021/09/28 14:55:49;;;;;;;28.92;5.90;;;20.10;69.20;;;;;;10493469;28;20074;-53
2021/09/28 15:00:51;;;;;;;26.90;5.07;;;20.10;68.80;;;;;;10486772;28;20024;-53
2021/09/28 15:05:51;;;;;;;24.63;4.53;;;20.10;68.40;;;;;;10498401;28;20039;-56
2021/09/28 15:10:54;;;;;;;22.95;4.28;;;20.10;67.90;;;;;;10500054;28;20024;-53
2021/09/28 15:15:55;;;;;;;16.55;3.55;;;20.10;67.50;;;;;;10498998;28;20036;-55
2021/09/28 15:20:57;;;;;;;18.13;3.15;;;20.10;67.50;;;;;;10496301;28;20127;-55
2021/09/28 15:25:57;;;;;;;13.02;2.85;;;20.00;67.30;;;;;;10499343;28;20036;-55
2021/09/28 15:30:58;;;;;;;13.98;2.20;;;20.00;67.30;;;;;;10497863;28;20071;-55
2021/09/28 15:35:58;;;;;;;8.25;2.17;;;20.00;67.50;;;;;;10498246;28;20056;-54
2021/09/28 15:40:59;;;;;;;8.00;2.33;;;19.90;67.60;;;;;;10497383;28;20465;-55
2021/09/28 15:46:00;;;;;;;6.68;2.10;;;19.90;67.50;;;;;;10497072;28;20123;-53
2021/09/28 15:51:01;;;;;;;6.03;1.50;;;19.80;67.60;;;;;;10497479;28;20081;-55
2021/09/28 15:56:03;;;;;;;5.75;1.85;;;19.80;67.60;;;;;;10499233;28;20097;-55
2021/09/28 16:01:04;;;;;;;11.35;2.08;;;19.80;67.70;;;;;;10497351;28;20058;-55
2021/09/28 16:06:09;;;;;;;7.05;2.35;;;19.70;67.90;;;;;;10498119;28;20035;-55
2021/09/28 16:11:13;;;;;;;8.13;2.28;;;19.70;67.50;;;;;;10495561;28;20052;-54
2021/09/28 16:16:16;;;;;;;6.28;1.98;;;19.70;67.40;;;;;;10482400;28;20039;-54
2021/09/28 16:21:17;;;;;;;16.60;2.95;;;19.70;67.30;;;;;;10498327;28;20020;-52
2021/09/28 16:26:23;;;;;;;17.17;3.35;;;19.90;70.40;;;;;;10498803;28;20039;-51
2021/09/28 16:31:23;;;;;;;9.02;2.45;;;20.00;69.60;;;;;;10472544;28;20098;-52
2021/09/28 16:36:25;;;;;;;10.27;2.67;;;20.10;69.40;;;;;;10497967;28;20028;-51
2021/09/28 16:41:26;;;;;;;15.50;3.00;;;20.00;69.20;;;;;;10497080;28;20029;-53
2021/09/28 16:46:26;;;;;;;25.20;3.60;;;20.10;69.00;;;;;;10496574;28;20362;-54
2021/09/28 16:51:27;;;;;;;11.70;2.80;;;20.10;68.70;;;;;;10476573;28;20032;-55
2021/09/28 16:56:28;;;;;;;11.95;3.38;;;20.10;68.80;;;;;;10496721;28;20142;-55
2021/09/28 17:01:28;;;;;;;12.88;3.10;;;20.10;68.70;;;;;;10495274;28;20079;-56
2021/09/28 17:06:30;;;;;;;16.33;3.30;;;20.00;68.80;;;;;;10495757;28;20055;-57
2021/09/28 17:11:32;;;;;;;10.40;3.00;;;19.90;68.90;;;;;;10496396;28;20461;-57
2021/09/28 17:16:33;;;;;;;15.20;2.97;;;19.90;69.10;;;;;;10496692;28;20511;-57
2021/09/28 17:21:35;;;;;;;11.65;2.50;;;19.90;69.40;;;;;;10494910;28;20025;-56
2021/09/28 17:26:36;;;;;;;13.60;3.50;;;19.80;69.50;;;;;;10478165;28;20059;-56
2021/09/28 17:32:18;;;;;;;9.13;2.20;;;19.80;69.60;;;;;;10494202;28;20083;-57
2021/09/28 17:37:20;;;;;;;16.52;3.15;;;19.80;70.20;;;;;;10493779;28;20089;-57
2021/09/28 17:42:21;;;;;;;8.02;3.03;;;19.80;70.40;;;;;;10476911;28;20044;-57
2021/09/28 17:47:23;;;;;;;11.45;2.72;;;19.80;70.70;;;;;;10495730;28;20059;-57
2021/09/28 17:52:23;;;;;;;8.98;2.92;;;19.80;70.90;;;;;;10477091;28;20032;-57
2021/09/28 17:57:27;;;;;;;6.82;2.05;;;19.80;71.10;;;;;;10495332;28;20511;-57
2021/09/28 18:02:28;;;;;;;10.93;2.13;;;19.80;71.10;;;;;;10492297;28;20041;-57
2021/09/28 18:07:28;;;;;;;9.45;2.45;;;19.90;71.20;;;;;;10486418;28;20020;-56
2021/09/28 18:12:30;;;;;;;11.23;2.47;;;19.80;70.50;;;;;;10489250;28;20040;-56
2021/09/28 18:17:38;;;;;;;13.45;2.47;;;19.80;70.60;;;;;;10490853;28;20032;-56
2021/09/28 18:22:43;;;;;;;10.73;2.22;;;19.80;70.70;;;;;;10495829;28;20032;-56
2021/09/28 18:27:47;;;;;;;10.80;2.67;;;19.80;70.60;;;;;;10502064;28;20021;-56
2021/09/28 18:32:48;;;;;;;11.35;2.72;;;19.80;70.90;;;;;;10501154;28;20051;-56
2021/09/28 18:37:50;;;;;;;7.07;2.35;;;19.80;70.90;;;;;;10500922;28;20055;-56
2021/09/28 18:43:03;;;;;;;12.35;3.05;;;19.80;70.90;;;;;;10501085;28;20123;-56
2021/09/28 18:48:04;;;;;;;8.75;2.58;;;19.90;71.90;;;;;;10501006;28;20451;-56
2021/09/28 18:53:06;;;;;;;7.97;2.55;;;20.00;70.90;;;;;;10502244;28;20032;-56
2021/09/28 18:58:09;;;;;;;9.90;2.25;;;19.90;70.90;;;;;;10501002;28;20052;-56
2021/09/28 19:03:11;;;;;;;10.60;2.30;;;19.90;71.00;;;;;;10501269;28;20024;-57
2021/09/28 19:08:14;;;;;;;9.90;2.72;;;19.90;71.10;;;;;;10501025;28;20090;-54
2021/09/28 19:13:15;;;;;;;9.70;2.47;;;19.90;71.30;;;;;;10499878;28;20389;-56
2021/09/28 19:18:16;;;;;;;7.50;2.40;;;19.90;71.10;;;;;;10500790;28;20067;-56
2021/09/28 19:23:16;;;;;;;6.90;2.40;;;19.90;71.10;;;;;;10482727;28;20438;-56
2021/09/28 19:28:17;;;;;;;6.38;2.13;;;19.80;71.30;;;;;;10500842;28;20032;-56
2021/09/28 19:33:18;;;;;;;8.30;2.88;;;19.70;71.10;;;;;;10498785;28;20044;-56
2021/09/28 19:38:20;;;;;;;8.10;2.42;;;19.70;71.70;;;;;;10477559;28;20381;-56
2021/09/28 19:43:26;;;;;;;5.35;2.20;;;19.70;71.80;;;;;;10500775;28;20036;-56
2021/09/28 19:48:29;;;;;;;4.30;1.75;;;19.70;71.80;;;;;;10494332;28;20035;-56
2021/09/28 19:53:31;;;;;;;5.13;1.65;;;19.60;71.80;;;;;;10472260;28;20089;-56
2021/09/28 20:40:57;;;;;;;3.45;1.42;;;19.50;71.80;;;;;;10498859;28;20040;-56
2021/09/28 20:45:59;;;;;;;3.10;1.55;;;19.50;71.60;;;;;;10496195;28;20037;-56
2021/09/28 20:51:01;;;;;;;3.35;1.55;;;19.50;71.60;;;;;;10484877;28;20031;-56
2021/09/28 20:56:03;;;;;;;3.75;2.10;;;19.50;71.70;;;;;;10496492;28;20028;-56
2021/09/28 21:01:05;;;;;;;4.15;1.73;;;19.40;71.60;;;;;;10496694;28;20546;-56
2021/09/28 21:06:05;;;;;;;3.42;1.83;;;19.40;71.70;;;;;;10497391;28;20039;-55
2021/09/28 21:11:08;;;;;;;4.38;1.33;;;19.50;71.60;;;;;;10489207;28;20388;-56
2021/09/28 21:16:09;;;;;;;3.42;1.27;;;19.40;71.60;;;;;;10497021;28;20032;-55
2021/09/28 21:21:09;;;;;;;5.63;1.85;;;19.40;71.70;;;;;;10491848;28;20024;-56
2021/09/28 21:26:10;;;;;;;4.60;2.00;;;19.40;71.60;;;;;;10495878;28;20040;-56
2021/09/28 21:31:11;;;;;;;4.20;1.40;;;19.40;71.50;;;;;;10495343;28;20170;-56
2021/09/28 21:41:18;;;;;;;3.58;1.33;;;19.40;71.60;;;;;;10495326;28;20043;-56
2021/09/28 21:46:18;;;;;;;2.22;1.20;;;19.40;71.70;;;;;;10496560;28;20031;-55
2021/09/28 21:51:21;;;;;;;3.80;1.73;;;19.40;71.70;;;;;;10473125;28;20064;-56
2021/09/28 21:56:22;;;;;;;4.63;1.63;;;19.40;71.70;;;;;;10501118;28;20377;-55
2021/09/28 22:01:23;;;;;;;4.25;1.45;;;19.40;71.70;;;;;;10504804;28;20108;-56
2021/09/28 22:06:24;;;;;;;2.00;1.10;;;19.40;71.70;;;;;;10491934;28;20020;-56
2021/09/28 22:11:25;;;;;;;8.60;1.55;;;19.40;71.70;;;;;;10504470;28;20107;-56
2021/09/28 22:16:25;;;;;;;3.10;1.30;;;19.40;71.70;;;;;;10502810;28;20055;-55
2021/09/28 22:21:26;;;;;;;2.97;1.27;;;19.40;71.70;;;;;;10499094;28;20130;-55
2021/09/28 22:26:28;;;;;;;3.50;1.40;;;19.40;71.70;;;;;;10481224;28;20124;-56
2021/09/28 22:31:29;;;;;;;3.28;1.70;;;19.40;71.70;;;;;;10485387;28;20123;-55
2021/09/28 22:36:30;;;;;;;3.03;1.50;;;19.40;71.80;;;;;;10502297;28;20044;-55
2021/09/28 22:41:31;;;;;;;2.85;1.48;;;19.40;71.70;;;;;;10501756;28;20056;-56
2021/09/28 22:46:32;;;;;;;2.67;1.58;;;19.40;71.80;;;;;;10501624;28;20020;-55
2021/09/28 22:51:33;;;;;;;3.35;1.52;;;19.40;71.80;;;;;;10502788;28;20431;-55
2021/09/28 22:56:34;;;;;;;3.88;1.20;;;19.40;71.80;;;;;;10502548;28;20827;-55
2021/09/28 23:01:34;;;;;;;3.80;1.77;;;19.30;71.80;;;;;;10502353;28;20157;-56
2021/09/28 23:06:35;;;;;;;3.10;1.52;;;19.40;71.90;;;;;;10500625;28;20044;-55
2021/09/28 23:11:36;;;;;;;4.13;2.03;;;19.30;72.60;;;;;;10500966;28;20442;-56
2021/09/28 23:16:36;;;;;;;3.67;1.90;;;19.30;72.10;;;;;;10501739;28;20107;-56
2021/09/28 23:21:39;;;;;;;2.50;1.15;;;19.30;72.20;;;;;;10500319;28;20044;-56
2021/09/28 23:26:40;;;;;;;3.13;1.52;;;19.30;72.20;;;;;;10501439;28;20052;-56
2021/09/28 23:31:40;;;;;;;2.95;1.40;;;19.30;72.20;;;;;;10499785;28;20068;-56
2021/09/28 23:36:41;;;;;;;2.13;1.63;;;19.30;72.20;;;;;;10500102;28;20052;-56
2021/09/28 23:41:42;;;;;;;3.88;1.88;;;19.30;72.30;;;;;;10499775;28;20111;-55
2021/09/28 23:46:42;;;;;;;2.83;1.33;;;19.30;72.30;;;;;;10500220;28;20384;-56
2021/09/28 23:51:43;;;;;;;2.38;1.77;;;19.30;72.80;;;;;;10486072;28;20437;-56
2021/09/28 23:56:44;;;;;;;2.22;1.20;;;19.30;72.20;;;;;;10499928;28;20020;-56
